Time;durP1;ratioP1;P1;durP2;ratioP2;P2;SDS_P1;SDS_P2;PMS_P1;PMS_P2;Temp;Humidity;BMP_temperature;BMP_pressure;BME280_temperature;BME280_humidity;BME280_pressure;Samples;Min_cycle;Max_cycle;Signal;HPM_P1;HPM_P2
2021/12/22 00:04:14;;;;;;;256.53;107.43;;;-2.80;99.90;;;;;;10246504;29;20593;-89
2021/12/22 00:09:15;;;;;;;287.87;120.30;;;-2.90;99.90;;;;;;10245408;28;20035;-88
2021/12/22 00:14:16;;;;;;;299.77;127.50;;;-2.90;99.90;;;;;;10243565;29;20557;-88
2021/12/22 00:19:17;;;;;;;297.63;125.03;;;-2.80;99.90;;;;;;10245289;28;20506;-89
2021/12/22 00:24:17;;;;;;;269.07;117.43;;;-2.80;99.90;;;;;;10227581;29;20074;-89
2021/12/22 00:29:19;;;;;;;244.53;105.67;;;-2.70;99.90;;;;;;10245126;28;20046;-88
2021/12/22 00:34:19;;;;;;;242.00;106.40;;;-2.60;99.90;;;;;;10229623;28;20031;-88
2021/12/22 00:39:20;;;;;;;232.43;104.10;;;-2.60;99.90;;;;;;10283953;28;20034;-89
2021/12/22 00:44:22;;;;;;;225.23;107.67;;;-2.50;99.90;;;;;;10263479;28;20051;-89
2021/12/22 00:49:23;;;;;;;306.00;136.03;;;-2.50;99.90;;;;;;10253040;28;20036;-88
2021/12/22 00:54:24;;;;;;;259.43;115.07;;;-2.50;99.90;;;;;;10258070;28;20122;-88
2021/12/22 00:59:24;;;;;;;239.27;105.73;;;-2.50;99.90;;;;;;10253265;28;20035;-89
2021/12/22 01:04:25;;;;;;;241.00;105.23;;;-2.50;99.90;;;;;;10254353;28;20065;-88
2021/12/22 01:09:26;;;;;;;208.83;95.87;;;-2.50;99.90;;;;;;10284886;28;20410;-88
2021/12/22 01:14:27;;;;;;;202.37;91.47;;;-2.60;99.90;;;;;;10234250;29;20031;-88
2021/12/22 01:19:46;;;;;;;211.47;99.43;;;-2.60;99.90;;;;;;10287271;28;20121;-88
2021/12/22 01:24:49;;;;;;;199.97;90.27;;;-2.60;99.90;;;;;;10289380;28;20051;-88
2021/12/22 01:29:51;;;;;;;182.23;84.90;;;-2.60;99.90;;;;;;10241620;28;20043;-88
2021/12/22 01:34:52;;;;;;;189.27;81.97;;;-2.70;99.90;;;;;;10265246;28;20061;-88
2021/12/22 01:39:53;;;;;;;152.37;71.13;;;-2.70;99.90;;;;;;10288825;28;20043;-88
2021/12/22 01:45:13;;;;;;;147.47;69.80;;;-2.60;99.90;;;;;;10244298;28;20058;-88
2021/12/22 01:50:16;;;;;;;145.07;66.20;;;-2.60;99.90;;;;;;10273127;28;20043;-88
2021/12/22 01:55:29;;;;;;;152.20;74.13;;;-2.50;99.90;;;;;;10257617;28;20037;-88
2021/12/22 02:00:30;;;;;;;124.47;60.33;;;-2.40;99.90;;;;;;10245981;28;20034;-89
2021/12/22 02:05:31;;;;;;;140.70;62.17;;;-2.40;99.90;;;;;;10279841;28;20121;-88
2021/12/22 02:10:36;;;;;;;120.80;53.47;;;-2.40;99.90;;;;;;10270340;28;20039;-88
2021/12/22 02:15:37;;;;;;;136.70;56.45;;;-2.30;99.90;;;;;;10280638;28;20027;-89
2021/12/22 02:20:39;;;;;;;122.40;55.43;;;-2.30;99.90;;;;;;10248420;28;20050;-88
2021/12/22 02:25:50;;;;;;;127.10;54.43;;;-2.30;99.90;;;;;;10276334;28;20081;-88
2021/12/22 02:30:53;;;;;;;125.47;58.57;;;-2.30;99.90;;;;;;10269688;28;20054;-88
2021/12/22 02:36:08;;;;;;;116.43;55.00;;;-2.30;99.90;;;;;;10288607;28;20069;-88
2021/12/22 02:41:12;;;;;;;106.37;50.03;;;-2.20;99.90;;;;;;10263427;28;20151;-87
2021/12/22 02:46:15;;;;;;;108.60;45.13;;;-2.20;99.90;;;;;;10255550;28;20118;-87
2021/12/22 02:51:17;;;;;;;99.70;44.90;;;-2.20;99.90;;;;;;10256844;28;20174;-89
2021/12/22 03:02:05;;;;;;;115.20;48.73;;;-2.10;99.90;;;;;;10256882;28;20503;-87
2021/12/22 03:07:01;;;;;;;92.20;44.23;;;-2.10;99.90;;;;;;10251257;28;20178;-88
2021/12/22 03:12:06;;;;;;;101.70;45.20;;;-2.10;99.90;;;;;;10256009;28;20038;-88
2021/12/22 03:17:07;;;;;;;94.03;36.47;;;-2.10;99.90;;;;;;10247549;28;20122;-88
2021/12/22 03:22:10;;;;;;;65.90;31.30;;;-2.10;99.90;;;;;;10239722;28;20467;-88
2021/12/22 03:27:11;;;;;;;57.00;27.87;;;-2.00;99.90;;;;;;10231667;28;20027;-87
2021/12/22 03:32:12;;;;;;;58.30;26.90;;;-2.00;99.90;;;;;;10229078;28;20031;-87
2021/12/22 03:37:13;;;;;;;57.13;26.40;;;-1.90;99.90;;;;;;10247038;28;20035;-87
2021/12/22 03:42:14;;;;;;;58.10;27.17;;;-1.90;99.90;;;;;;10230029;28;20047;-87
2021/12/22 03:47:14;;;;;;;53.40;25.23;;;-1.90;99.90;;;;;;10247751;28;20072;-88
2021/12/22 03:52:15;;;;;;;50.17;21.37;;;-1.90;99.90;;;;;;10255686;28;20046;-88
2021/12/22 03:57:16;;;;;;;52.33;23.63;;;-2.00;99.90;;;;;;10230516;28;20051;-88
2021/12/22 04:02:19;;;;;;;45.43;20.80;;;-2.10;99.90;;;;;;10241788;28;20121;-87
2021/12/22 04:07:20;;;;;;;53.00;23.70;;;-2.20;99.90;;;;;;10240348;28;20105;-91
2021/12/22 04:12:21;;;;;;;50.97;22.27;;;-2.30;99.90;;;;;;10255206;28;20663;-90
2021/12/22 04:17:22;;;;;;;49.47;22.30;;;-2.40;99.90;;;;;;10265878;28;20031;-85
2021/12/22 04:22:41;;;;;;;50.90;22.43;;;-2.40;99.90;;;;;;10260836;28;20047;-86
2021/12/22 04:27:41;;;;;;;47.47;22.07;;;-2.50;99.90;;;;;;10235879;29;20095;-87
2021/12/22 04:32:43;;;;;;;48.70;22.53;;;-2.50;99.90;;;;;;10237305;28;20070;-85
2021/12/22 04:37:43;;;;;;;50.67;22.20;;;-2.50;99.90;;;;;;10280597;28;20035;-84
2021/12/22 04:42:44;;;;;;;51.60;21.87;;;-2.40;99.90;;;;;;10236818;28;20663;-90
2021/12/22 04:47:47;;;;;;;50.30;22.57;;;-2.50;99.90;;;;;;10245153;28;20035;-87
2021/12/22 04:52:57;;;;;;;50.50;21.90;;;-2.50;99.90;;;;;;10279715;28;20027;-87
2021/12/22 04:57:59;;;;;;;54.13;23.17;;;-2.50;99.90;;;;;;10262810;28;20046;-86
2021/12/22 05:03:00;;;;;;;51.50;22.93;;;-2.40;99.90;;;;;;10265217;28;20027;-86
2021/12/22 05:08:01;;;;;;;49.87;21.87;;;-2.40;99.90;;;;;;10254935;28;20395;-83
2021/12/22 05:13:02;;;;;;;43.20;19.37;;;-2.40;99.90;;;;;;10252227;28;20030;-83
2021/12/22 05:18:20;;;;;;;50.30;23.13;;;-2.40;99.90;;;;;;10272445;28;20109;-83
2021/12/22 05:23:21;;;;;;;48.77;21.20;;;-2.40;99.90;;;;;;10255594;28;20031;-86
2021/12/22 05:28:22;;;;;;;49.97;22.47;;;-2.50;99.90;;;;;;10259181;28;20039;-88
2021/12/22 05:33:22;;;;;;;49.73;21.53;;;-2.50;99.90;;;;;;10241760;28;20094;-86
2021/12/22 05:38:23;;;;;;;47.03;21.13;;;-2.60;99.90;;;;;;10251413;29;20055;-87
2021/12/22 05:43:24;;;;;;;43.83;20.67;;;-2.60;99.90;;;;;;10279659;28;20105;-86
2021/12/22 05:48:24;;;;;;;47.93;21.60;;;-2.70;99.90;;;;;;10290492;28;20130;-86
2021/12/22 05:53:25;;;;;;;45.73;21.80;;;-2.70;99.90;;;;;;10272752;28;20026;-86
2021/12/22 05:58:27;;;;;;;46.53;21.20;;;-2.80;99.90;;;;;;10275118;28;20023;-86
2021/12/22 06:03:39;;;;;;;54.60;23.40;;;-2.90;99.90;;;;;;10247736;29;20118;-85
2021/12/22 06:08:40;;;;;;;55.20;22.63;;;-3.00;99.90;;;;;;10232401;29;20066;-87
2021/12/22 06:13:41;;;;;;;52.63;23.57;;;-3.00;99.90;;;;;;10249623;29;20066;-86
2021/12/22 06:18:44;;;;;;;56.10;23.67;;;-3.00;99.90;;;;;;10248575;28;20063;-89
2021/12/22 06:23:45;;;;;;;62.33;22.37;;;-3.00;99.90;;;;;;10249353;29;20118;-86
2021/12/22 06:28:45;;;;;;;54.40;22.73;;;-3.00;99.90;;;;;;10240145;28;20053;-88
2021/12/22 06:33:49;;;;;;;55.17;23.97;;;-3.00;99.90;;;;;;10247466;29;20027;-87
2021/12/22 06:38:58;;;;;;;50.30;22.13;;;-3.00;99.90;;;;;;10231435;29;20062;-86
2021/12/22 06:44:17;;;;;;;52.70;22.47;;;-2.90;99.90;;;;;;10230624;29;20059;-86
2021/12/22 06:49:18;;;;;;;56.43;22.37;;;-3.00;99.90;;;;;;10230946;29;20038;-87
2021/12/22 06:54:19;;;;;;;50.57;21.90;;;-3.00;99.90;;;;;;10230803;29;20127;-86
2021/12/22 06:59:20;;;;;;;46.70;19.70;;;-3.00;99.90;;;;;;10230522;29;20037;-85
2021/12/22 07:04:20;;;;;;;40.67;16.67;;;-3.00;99.90;;;;;;10213878;29;20027;-89
2021/12/22 07:09:21;;;;;;;39.80;17.73;;;-3.00;99.90;;;;;;10205248;29;20043;-88
2021/12/22 07:14:24;;;;;;;45.23;20.80;;;-3.00;99.90;;;;;;10206512;29;20153;-87
2021/12/22 07:19:25;;;;;;;54.87;19.33;;;-3.00;99.90;;;;;;10206131;29;20024;-89
2021/12/22 07:24:26;;;;;;;41.63;17.80;;;-3.00;99.90;;;;;;10208193;29;20062;-87
2021/12/22 07:29:27;;;;;;;36.70;16.07;;;-3.00;99.90;;;;;;10206036;29;20062;-89
2021/12/22 07:34:27;;;;;;;42.87;17.37;;;-3.00;99.90;;;;;;10207245;29;20119;-86
2021/12/22 07:39:31;;;;;;;42.40;17.47;;;-3.10;99.90;;;;;;10205746;29;20044;-88
2021/12/22 07:44:32;;;;;;;72.90;30.60;;;-3.20;99.90;;;;;;10206000;29;20063;-86
2021/12/22 07:49:33;;;;;;;52.40;23.70;;;-3.20;99.90;;;;;;10208008;29;20511;-86
2021/12/22 07:54:33;;;;;;;47.30;20.43;;;-3.20;99.90;;;;;;10192693;29;20059;-86
2021/12/22 07:59:41;;;;;;;40.50;18.53;;;-3.30;99.90;;;;;;10214120;29;20130;-85
2021/12/22 08:04:42;;;;;;;36.40;17.33;;;-3.30;99.90;;;;;;10197014;29;20039;-89
2021/12/22 08:09:42;;;;;;;105.23;41.60;;;-3.30;99.90;;;;;;10248908;29;20500;-88
2021/12/22 08:14:43;;;;;;;167.73;64.50;;;-3.30;99.90;;;;;;10213771;29;20032;-86
2021/12/22 08:19:45;;;;;;;120.17;45.70;;;-3.30;99.90;;;;;;10236233;29;20685;-85
2021/12/22 08:24:46;;;;;;;172.67;63.43;;;-3.40;99.90;;;;;;10246457;28;20024;-85
2021/12/22 08:29:47;;;;;;;94.67;38.33;;;-3.50;99.90;;;;;;10235455;29;20103;-85
2021/12/22 08:34:53;;;;;;;80.67;37.27;;;-3.60;99.90;;;;;;10231118;29;20105;-89
2021/12/22 08:39:55;;;;;;;112.97;48.53;;;-3.70;99.90;;;;;;10221192;29;20506;-86
2021/12/22 08:44:56;;;;;;;211.90;87.27;;;-3.70;99.90;;;;;;10246607;29;20034;-86
2021/12/22 08:49:56;;;;;;;186.97;78.10;;;-3.50;99.90;;;;;;10252196;29;20047;-85
2021/12/22 08:54:57;;;;;;;136.80;57.83;;;-3.00;99.90;;;;;;10226025;29;20026;-88
2021/12/22 08:59:58;;;;;;;139.70;53.27;;;-2.60;99.90;;;;;;10228893;29;20034;-85
2021/12/22 09:04:58;;;;;;;150.27;58.77;;;-2.10;99.90;;;;;;10244992;29;20110;-86
2021/12/22 09:10:49;;;;;;;134.33;59.73;;;-1.80;99.90;;;;;;10251312;29;20045;-85
2021/12/22 09:15:50;;;;;;;67.60;29.60;;;-1.50;99.90;;;;;;10233613;29;20031;-85
2021/12/22 09:20:50;;;;;;;47.73;21.30;;;-1.20;99.90;;;;;;10233981;29;20502;-85
2021/12/22 09:25:51;;;;;;;30.47;14.80;;;-1.00;99.90;;;;;;10233280;29;20031;-84
2021/12/22 09:30:52;;;;;;;34.10;14.40;;;-1.10;99.90;;;;;;10233312;29;20763;-88
2021/12/22 09:35:54;;;;;;;27.87;13.07;;;-1.00;99.90;;;;;;10237432;29;20023;-85
2021/12/22 09:40:55;;;;;;;24.23;11.63;;;-0.90;99.90;;;;;;10249611;29;20586;-89
2021/12/22 09:46:29;;;;;;;23.20;10.37;;;-0.80;99.90;;;;;;10250317;29;20032;-86
2021/12/22 09:56:44;;;;;;;23.33;10.87;;;-1.10;99.90;;;;;;10249484;29;20035;-85
2021/12/22 10:01:45;;;;;;;30.90;13.40;;;-1.20;99.90;;;;;;10248788;29;20051;-85
2021/12/22 10:06:45;;;;;;;26.57;11.27;;;-1.10;99.90;;;;;;10248083;29;20106;-88
2021/12/22 10:11:47;;;;;;;20.17;8.87;;;-0.70;99.90;;;;;;10246607;29;20027;-85
2021/12/22 10:16:51;;;;;;;19.00;8.00;;;-0.70;99.90;;;;;;10246837;28;20027;-85
2021/12/22 10:22:34;;;;;;;22.27;9.20;;;-1.00;99.90;;;;;;10230963;29;20058;-86
2021/12/22 10:27:35;;;;;;;24.60;10.30;;;-1.30;99.90;;;;;;10240682;29;20038;-84
2021/12/22 10:32:42;;;;;;;23.17;10.40;;;-1.30;99.90;;;;;;10247646;29;20039;-85
2021/12/22 10:37:44;;;;;;;19.97;8.67;;;-1.00;99.90;;;;;;10247229;29;20023;-86
2021/12/22 10:42:45;;;;;;;16.20;6.83;;;-0.90;99.90;;;;;;10269749;28;20050;-86
2021/12/22 10:53:13;;;;;;;13.17;6.53;;;-1.10;99.90;;;;;;10251809;28;20039;-85
2021/12/22 10:58:18;;;;;;;15.90;7.30;;;-0.90;99.90;;;;;;10235117;28;20040;-85
2021/12/22 11:03:19;;;;;;;20.73;6.97;;;-1.30;99.90;;;;;;10248797;28;20044;-88
2021/12/22 11:08:25;;;;;;;18.37;8.03;;;-1.60;99.90;;;;;;10245452;28;20062;-88
2021/12/22 11:13:26;;;;;;;22.40;8.50;;;-1.80;99.90;;;;;;10248039;28;20023;-88
2021/12/22 11:18:28;;;;;;;20.60;8.60;;;-1.90;99.90;;;;;;10246895;28;20027;-85
2021/12/22 11:23:28;;;;;;;21.83;8.57;;;-2.00;99.90;;;;;;10247158;28;20111;-87
2021/12/22 11:28:30;;;;;;;24.87;10.30;;;-2.00;99.90;;;;;;10246263;28;20031;-84
2021/12/22 11:33:32;;;;;;;69.83;23.53;;;-1.50;99.90;;;;;;10242606;28;20500;-84
2021/12/22 11:38:33;;;;;;;25.23;10.07;;;-1.10;99.90;;;;;;10246671;28;20070;-88
2021/12/22 11:43:39;;;;;;;29.73;11.23;;;-0.90;99.90;;;;;;10284841;28;20061;-84
2021/12/22 11:48:41;;;;;;;33.03;12.25;;;-1.20;99.90;;;;;;10267740;28;20046;-88
2021/12/22 11:54:00;;;;;;;37.70;13.40;;;-1.60;99.90;;;;;;10267534;28;20038;-88
2021/12/22 11:59:01;;;;;;;32.87;12.20;;;-1.80;99.90;;;;;;10261476;28;20030;-87
2021/12/22 12:04:15;;;;;;;27.90;10.93;;;-2.00;99.90;;;;;;10235810;28;20409;-85
2021/12/22 12:09:22;;;;;;;31.07;11.27;;;-2.00;99.90;;;;;;10243346;28;20043;-86
2021/12/22 12:25:36;;;;;;;25.03;10.40;;;-2.20;99.90;;;;;;10246817;28;20138;-85
2021/12/22 12:30:48;;;;;;;22.50;9.70;;;-2.30;99.90;;;;;;10245903;28;20514;-85
2021/12/22 12:36:32;;;;;;;21.53;8.33;;;-2.30;99.90;;;;;;10243544;28;20019;-85
2021/12/22 12:41:35;;;;;;;29.47;12.20;;;-2.40;99.90;;;;;;10253730;28;20055;-89
2021/12/22 12:46:38;;;;;;;49.30;19.30;;;-2.40;99.90;;;;;;10273741;28;20031;-86
2021/12/22 12:51:55;;;;;;;42.80;15.87;;;-2.50;99.90;;;;;;10291489;28;20026;-88
2021/12/22 12:57:20;;;;;;;35.07;15.63;;;-2.60;99.90;;;;;;10272689;28;20042;-86
2021/12/22 13:02:26;;;;;;;40.93;15.07;;;-2.50;99.90;;;;;;10272995;28;20062;-84
2021/12/22 13:07:27;;;;;;;30.23;11.47;;;-2.40;99.90;;;;;;10273321;28;20037;-88
2021/12/22 13:12:46;;;;;;;22.03;10.47;;;-2.20;99.90;;;;;;10290427;28;20126;-88
2021/12/22 13:18:02;;;;;;;24.90;9.57;;;-2.20;99.90;;;;;;10272773;28;20093;-85
2021/12/22 13:23:06;;;;;;;28.85;10.48;;;-2.30;99.90;;;;;;10247488;28;20035;-87
2021/12/22 13:28:28;;;;;;;19.63;8.43;;;-2.40;99.90;;;;;;10248990;28;20047;-89
2021/12/22 13:39:15;;;;;;;21.73;9.02;;;-2.10;99.90;;;;;;10244622;28;20035;-87
2021/12/22 13:44:15;;;;;;;25.60;10.43;;;-1.90;99.90;;;;;;10243523;29;20047;-85
2021/12/22 13:49:16;;;;;;;18.53;8.30;;;-1.80;99.90;;;;;;10243777;29;20052;-88
2021/12/22 13:54:20;;;;;;;11.67;5.37;;;-1.70;99.90;;;;;;10226797;29;20039;-85
2021/12/22 13:59:24;;;;;;;11.80;6.63;;;-1.80;99.90;;;;;;10243098;29;20127;-86
2021/12/22 14:04:36;;;;;;;15.97;7.73;;;-2.00;99.90;;;;;;10276031;28;20042;-85
2021/12/22 14:09:52;;;;;;;12.30;5.30;;;-2.10;99.90;;;;;;10269766;28;20045;-85
2021/12/22 14:14:55;;;;;;;12.53;5.43;;;-2.30;99.90;;;;;;10287645;28;20043;-85
2021/12/22 14:21:06;;;;;;;12.67;5.37;;;-2.50;99.90;;;;;;10269845;28;20031;-88
2021/12/22 14:26:12;;;;;;;12.60;5.27;;;-2.80;99.90;;;;;;10245089;28;20038;-87
2021/12/22 14:31:14;;;;;;;16.10;5.70;;;-3.10;99.90;;;;;;10246212;28;20051;-86
2021/12/22 14:36:14;;;;;;;40.23;14.90;;;-3.20;99.90;;;;;;10243554;28;20045;-86
2021/12/22 14:41:16;;;;;;;78.00;29.10;;;-3.30;99.90;;;;;;10248079;28;20200;-87
2021/12/22 14:46:31;;;;;;;139.07;48.53;;;-3.50;99.90;;;;;;10221325;29;20028;-86
2021/12/22 14:51:35;;;;;;;154.70;55.67;;;-3.70;99.90;;;;;;10232785;29;20039;-87
2021/12/22 14:56:42;;;;;;;125.07;47.87;;;-3.80;99.90;;;;;;10223731;29;20546;-91
2021/12/22 15:01:43;;;;;;;131.73;52.17;;;-4.00;99.90;;;;;;10247145;28;20039;-86
2021/12/22 15:06:43;;;;;;;160.30;69.33;;;-4.10;99.90;;;;;;10268753;28;20022;-87
2021/12/22 15:11:44;;;;;;;164.70;63.57;;;-4.30;99.90;;;;;;10274334;28;20035;-86
2021/12/22 15:16:45;;;;;;;130.00;52.30;;;-4.40;99.90;;;;;;10287329;28;20504;-85
2021/12/22 15:21:45;;;;;;;178.03;75.50;;;-4.60;99.90;;;;;;10269522;28;20035;-85
2021/12/22 15:26:46;;;;;;;306.70;125.90;;;-4.60;99.90;;;;;;10247416;29;20539;-85
2021/12/22 15:31:47;;;;;;;301.40;126.47;;;-4.60;99.90;;;;;;10247195;28;20039;-86
2021/12/22 15:36:48;;;;;;;201.07;85.37;;;-4.70;99.90;;;;;;10246828;28;20039;-85
2021/12/22 15:41:49;;;;;;;160.37;68.10;;;-4.60;99.90;;;;;;10245909;28;20103;-87
2021/12/22 15:46:49;;;;;;;259.67;99.57;;;-4.70;99.90;;;;;;10243593;29;20539;-85
2021/12/22 15:51:50;;;;;;;255.53;99.90;;;-4.80;99.90;;;;;;10226601;29;20039;-84
2021/12/22 15:56:51;;;;;;;185.63;76.70;;;-4.90;99.90;;;;;;10230642;28;20044;-84
2021/12/22 16:01:52;;;;;;;165.90;67.53;;;-4.90;99.90;;;;;;10240776;28;20071;-84
2021/12/22 16:06:52;;;;;;;122.10;51.53;;;-4.90;99.90;;;;;;10217646;29;20140;-85
2021/12/22 16:11:53;;;;;;;127.60;50.77;;;-5.00;99.90;;;;;;10245924;28;20139;-86
2021/12/22 16:16:54;;;;;;;162.50;67.03;;;-5.00;99.90;;;;;;10250005;28;20035;-85
2021/12/22 16:22:04;;;;;;;203.17;89.83;;;-4.90;99.90;;;;;;10253441;28;20146;-83
2021/12/22 16:27:07;;;;;;;198.07;81.63;;;-4.90;99.90;;;;;;10271881;28;20042;-83
2021/12/22 16:32:08;;;;;;;176.40;74.00;;;-4.90;99.90;;;;;;10256892;28;20051;-85
2021/12/22 16:37:08;;;;;;;154.13;62.67;;;-4.80;99.90;;;;;;10284657;28;20507;-86
2021/12/22 16:42:09;;;;;;;149.87;63.30;;;-4.80;99.90;;;;;;10235354;29;20054;-86
2021/12/22 16:47:10;;;;;;;154.90;61.43;;;-4.80;99.90;;;;;;10235455;29;20494;-90
2021/12/22 16:52:10;;;;;;;185.47;79.47;;;-4.70;99.90;;;;;;10243374;28;20032;-88
2021/12/22 16:57:11;;;;;;;164.77;67.03;;;-4.70;99.90;;;;;;10255222;28;20066;-83
2021/12/22 17:02:12;;;;;;;184.83;77.63;;;-4.80;99.90;;;;;;10285575;28;20035;-87
2021/12/22 17:07:13;;;;;;;237.77;103.63;;;-4.80;99.90;;;;;;10260806;28;20038;-86
2021/12/22 17:12:13;;;;;;;194.77;82.17;;;-4.80;99.90;;;;;;10232405;28;20031;-84
2021/12/22 17:17:18;;;;;;;364.07;157.17;;;-4.80;99.90;;;;;;10236117;28;20110;-87
2021/12/22 17:22:19;;;;;;;315.20;140.30;;;-4.90;99.90;;;;;;10245077;28;20074;-87
2021/12/22 17:27:20;;;;;;;404.47;177.17;;;-4.80;99.90;;;;;;10244238;28;20043;-85
2021/12/22 17:32:21;;;;;;;371.70;162.07;;;-4.70;99.90;;;;;;10251573;28;20035;-87
2021/12/22 17:37:22;;;;;;;284.43;124.17;;;-4.60;99.90;;;;;;10253600;28;20046;-88
2021/12/22 17:42:23;;;;;;;258.30;111.13;;;-4.60;99.90;;;;;;10245524;28;20145;-90
2021/12/22 17:47:24;;;;;;;265.97;115.00;;;-4.50;99.90;;;;;;10232390;29;20054;-83
2021/12/22 17:52:25;;;;;;;267.63;120.23;;;-4.40;99.90;;;;;;10258105;28;20039;-83
2021/12/22 17:57:26;;;;;;;299.70;133.03;;;-4.40;99.90;;;;;;10240050;28;20483;-86
2021/12/22 18:02:26;;;;;;;287.40;130.83;;;-4.40;99.90;;;;;;10265541;28;20070;-86
2021/12/22 18:07:27;;;;;;;269.87;123.80;;;-4.30;99.90;;;;;;10252563;28;20134;-86
2021/12/22 18:12:28;;;;;;;243.67;113.70;;;-4.30;99.90;;;;;;10269809;28;20049;-91
2021/12/22 18:17:29;;;;;;;236.07;105.57;;;-4.20;99.90;;;;;;10258984;28;20537;-88
2021/12/22 18:22:30;;;;;;;210.20;95.53;;;-4.20;99.90;;;;;;10244776;28;20031;-90
2021/12/22 18:27:30;;;;;;;206.20;89.63;;;-4.20;99.90;;;;;;10249000;28;20505;-89
2021/12/22 18:32:32;;;;;;;193.43;87.60;;;-4.20;99.90;;;;;;10232305;29;20521;-86
2021/12/22 18:37:36;;;;;;;225.93;97.30;;;-4.30;99.90;;;;;;10249276;28;20106;-84
2021/12/22 18:42:36;;;;;;;248.83;104.87;;;-4.30;99.90;;;;;;10246012;28;20059;-86
2021/12/22 18:47:37;;;;;;;246.10;108.47;;;-4.40;99.90;;;;;;10220526;28;20048;-85
2021/12/22 18:52:38;;;;;;;230.30;102.63;;;-4.40;99.90;;;;;;10251527;28;20039;-84
2021/12/22 18:57:38;;;;;;;259.27;111.47;;;-4.50;99.90;;;;;;10252966;28;20042;-86
2021/12/22 19:02:39;;;;;;;262.93;113.20;;;-4.60;99.90;;;;;;10268053;28;20074;-85
2021/12/22 19:07:41;;;;;;;316.13;127.80;;;-4.70;99.90;;;;;;10258846;28;20122;-90
2021/12/22 19:12:45;;;;;;;293.40;121.70;;;-4.90;99.90;;;;;;10235286;28;20023;-89
2021/12/22 19:17:45;;;;;;;289.20;119.43;;;-4.90;99.90;;;;;;10264416;28;20026;-85
2021/12/22 19:22:46;;;;;;;611.23;280.57;;;-4.90;99.90;;;;;;10253119;28;20031;-90
2021/12/22 19:27:47;;;;;;;847.93;364.10;;;-5.00;99.90;;;;;;10257314;28;20056;-87
2021/12/22 19:32:49;;;;;;;930.57;398.67;;;-5.10;99.90;;;;;;10237302;28;20033;-90
2021/12/22 19:37:53;;;;;;;1158.77;488.40;;;-5.20;99.90;;;;;;10227397;29;20063;-90
2021/12/22 19:42:54;;;;;;;1046.57;439.50;;;-5.20;99.90;;;;;;10264854;28;20058;-87
2021/12/22 19:47:54;;;;;;;847.03;366.37;;;-5.20;99.90;;;;;;10252581;28;20075;-87
2021/12/22 19:52:56;;;;;;;575.70;258.20;;;-5.40;99.90;;;;;;10273057;28;20059;-87
2021/12/22 19:57:58;;;;;;;404.63;187.07;;;-5.50;99.90;;;;;;10249902;28;20031;-86
2021/12/22 20:03:00;;;;;;;401.57;186.17;;;-5.60;99.90;;;;;;10247955;28;20035;-88
2021/12/22 20:08:07;;;;;;;413.20;190.93;;;-5.50;99.90;;;;;;10238579;29;20039;-93
2021/12/22 20:13:09;;;;;;;435.40;200.13;;;-5.50;99.90;;;;;;10237269;29;20047;-87
2021/12/22 20:18:10;;;;;;;485.57;229.20;;;-5.50;99.90;;;;;;10235290;28;20050;-87
2021/12/22 20:23:11;;;;;;;554.80;251.27;;;-5.60;99.90;;;;;;10228452;29;20562;-87
2021/12/22 20:28:12;;;;;;;478.03;226.77;;;-5.60;99.90;;;;;;10236367;29;20042;-87
2021/12/22 20:33:12;;;;;;;469.40;214.00;;;-5.60;99.90;;;;;;10235544;28;20034;-87
2021/12/22 20:38:16;;;;;;;405.63;189.87;;;-5.60;99.90;;;;;;10250963;28;20495;-87
2021/12/22 20:43:20;;;;;;;417.27;193.20;;;-5.50;99.90;;;;;;10231549;29;20055;-86
2021/12/22 20:48:24;;;;;;;414.27;204.30;;;-5.50;99.90;;;;;;10208821;29;20036;-88
2021/12/22 20:53:25;;;;;;;445.50;198.77;;;-5.40;99.90;;;;;;10219222;29;20419;-86
2021/12/22 20:58:26;;;;;;;526.67;233.00;;;-5.50;99.90;;;;;;10203574;29;20622;-87
2021/12/22 21:03:27;;;;;;;509.73;219.77;;;-5.50;99.90;;;;;;10185981;29;20032;-85
2021/12/22 21:08:28;;;;;;;448.97;192.13;;;-5.50;99.90;;;;;;10212430;29;20046;-87
2021/12/22 21:13:30;;;;;;;459.00;198.37;;;-5.50;99.90;;;;;;10214654;29;20130;-86
2021/12/22 21:18:33;;;;;;;466.73;197.57;;;-5.50;99.90;;;;;;10208859;29;20388;-85
2021/12/22 21:23:43;;;;;;;502.47;205.87;;;-5.60;99.90;;;;;;10182139;29;20407;-85
2021/12/22 21:28:43;;;;;;;508.70;209.80;;;-5.60;99.90;;;;;;10168051;29;20031;-86
2021/12/22 21:33:44;;;;;;;517.43;215.63;;;-5.50;99.90;;;;;;10180215;29;20036;-86
2021/12/22 21:38:45;;;;;;;418.50;185.07;;;-5.50;99.90;;;;;;10210675;29;20141;-86
2021/12/22 21:43:46;;;;;;;358.77;150.63;;;-5.40;99.90;;;;;;10216227;28;20055;-87
2021/12/22 21:48:46;;;;;;;419.03;170.40;;;-5.40;99.90;;;;;;10230864;28;20396;-87
2021/12/22 21:53:47;;;;;;;565.57;236.50;;;-5.30;99.90;;;;;;10242087;29;20492;-88
2021/12/22 21:58:48;;;;;;;411.47;167.43;;;-5.30;99.90;;;;;;10246383;28;20082;-85
2021/12/22 22:03:49;;;;;;;357.17;142.97;;;-5.20;99.90;;;;;;10243373;28;20439;-85
2021/12/22 22:08:49;;;;;;;339.20;135.13;;;-5.10;99.90;;;;;;10220709;28;20106;-85
2021/12/22 22:13:50;;;;;;;271.00;117.77;;;-5.00;99.90;;;;;;10241968;28;20039;-88
2021/12/22 22:18:51;;;;;;;275.83;120.40;;;-4.90;99.90;;;;;;10272931;28;20110;-88
2021/12/22 22:23:52;;;;;;;274.87;122.17;;;-4.90;99.90;;;;;;10259064;28;20043;-85
2021/12/22 22:28:52;;;;;;;280.53;122.93;;;-4.80;99.90;;;;;;10249595;28;20051;-85
2021/12/22 22:33:57;;;;;;;287.50;125.63;;;-4.70;99.90;;;;;;10246620;29;20472;-85
2021/12/22 22:38:58;;;;;;;295.50;126.87;;;-4.70;99.90;;;;;;10248341;28;20066;-85
2021/12/22 22:43:58;;;;;;;284.87;126.80;;;-4.80;99.90;;;;;;10254984;28;20070;-88
2021/12/22 22:48:59;;;;;;;298.00;126.70;;;-4.90;99.90;;;;;;10245608;28;20049;-85
2021/12/22 22:54:00;;;;;;;303.97;129.63;;;-4.90;99.90;;;;;;10287748;28;20057;-86
2021/12/22 22:59:01;;;;;;;329.77;136.57;;;-4.90;99.90;;;;;;10263765;28;20547;-85
2021/12/22 23:04:02;;;;;;;346.77;147.23;;;-4.90;99.90;;;;;;10240967;28;20030;-84
2021/12/22 23:09:03;;;;;;;343.93;143.17;;;-5.00;99.90;;;;;;10250883;28;20047;-85
2021/12/22 23:14:04;;;;;;;334.77;144.27;;;-5.10;99.90;;;;;;10261425;28;20073;-84
2021/12/22 23:19:05;;;;;;;314.57;135.93;;;-5.10;99.90;;;;;;10252407;28;20489;-83
2021/12/22 23:24:06;;;;;;;315.60;136.80;;;-5.20;99.90;;;;;;10269764;28;20127;-84
2021/12/22 23:29:07;;;;;;;300.97;133.53;;;-5.20;99.90;;;;;;10265625;28;20046;-87
2021/12/22 23:34:07;;;;;;;309.57;132.87;;;-5.20;99.90;;;;;;10250465;28;20487;-84
2021/12/22 23:49:18;;;;;;;270.13;120.87;;;-4.90;99.90;;;;;;10271315;28;20184;-84
2021/12/22 23:54:20;;;;;;;271.50;122.37;;;-4.80;99.90;;;;;;10246588;29;20144;-84
2021/12/22 23:59:21;;;;;;;264.73;117.67;;;-4.70;99.90;;;;;;10246693;28;20043;-86
